createdAt,value
2023-01-11T00:01:22.208Z,99231.69
2023-01-11T00:03:50.812Z,99229.09
2023-01-11T00:06:19.544Z,99230.06
2023-01-11T00:08:48.134Z,99214.50
2023-01-11T00:11:17.579Z,99217.09
2023-01-11T00:13:46.502Z,99209.47
2023-01-11T00:16:15.497Z,99208.34
2023-01-11T00:18:45.489Z,99209.00
2023-01-11T00:21:14.855Z,99216.88
2023-01-11T00:23:43.524Z,99215.72
2023-01-11T00:26:13.715Z,99216.97
2023-01-11T00:28:42.554Z,99219.72
2023-01-11T00:31:11.305Z,99225.56
2023-01-11T00:33:39.989Z,99216.16
2023-01-11T00:36:10.530Z,99204.63
2023-01-11T00:38:46.854Z,99205.53
2023-01-11T00:41:34.478Z,99192.91
2023-01-11T00:44:23.353Z,99194.72
2023-01-11T00:47:09.287Z,99179.38
2023-01-11T00:49:37.955Z,99181.53
2023-01-11T00:52:09.263Z,99165.50
2023-01-11T00:54:38.215Z,99171.78
2023-01-11T00:57:07.541Z,99176.19
2023-01-11T00:59:36.525Z,99171.16
2023-01-11T01:02:05.349Z,99173.59
2023-01-11T01:04:34.156Z,99173.75
2023-01-11T01:07:02.731Z,99163.88
2023-01-11T01:09:33.064Z,99162.53
2023-01-11T01:12:02.886Z,99153.97
2023-01-11T01:14:31.359Z,99158.19
2023-01-11T01:17:01.583Z,99159.25
2023-01-11T01:19:31.390Z,99162.03
2023-01-11T01:22:00.983Z,99151.47
2023-01-11T01:24:30.767Z,99156.31
2023-01-11T01:27:00.905Z,99152.56
2023-01-11T01:29:29.780Z,99153.16
2023-01-11T01:31:58.413Z,99149.84
2023-01-11T01:34:27.305Z,99153.34
2023-01-11T01:36:55.876Z,99157.22
2023-01-11T01:39:24.437Z,99160.16
2023-01-11T01:41:53.077Z,99159.19
2023-01-11T01:44:57.989Z,99160.09
2023-01-11T01:47:32.274Z,99148.06
2023-01-11T01:50:03.432Z,99157.03
2023-01-11T01:52:33.255Z,99138.06
2023-01-11T01:55:07.285Z,99135.63
2023-01-11T01:57:38.709Z,99140.03
2023-01-11T02:00:11.519Z,99126.41
2023-01-11T02:02:41.281Z,99122.38
2023-01-11T02:05:11.273Z,99124.00
2023-01-11T02:07:41.656Z,99118.59
2023-01-11T02:10:12.759Z,99121.38
2023-01-11T02:12:44.288Z,99114.94
2023-01-11T02:15:14.547Z,99101.69
2023-01-11T02:17:43.149Z,99097.84
2023-01-11T02:20:34.640Z,99092.47
2023-01-11T02:23:16.073Z,99088.72
2023-01-11T02:26:18.030Z,99090.41
2023-01-11T02:28:52.961Z,99099.63
2023-01-11T02:31:30.211Z,99093.09
2023-01-11T02:34:11.423Z,99092.56
2023-01-11T02:36:48.715Z,99086.66
2023-01-11T02:39:22.429Z,99077.50
2023-01-11T02:42:14.377Z,99072.06
2023-01-11T02:45:03.161Z,99065.06
2023-01-11T02:47:38.427Z,99067.50
2023-01-11T02:50:14.693Z,99067.50
2023-01-11T02:52:50.509Z,99066.50
2023-01-11T02:55:22.326Z,99069.91
2023-01-11T02:57:52.535Z,99073.75
2023-01-11T03:00:23.232Z,99071.06
2023-01-11T03:03:07.300Z,99071.88
2023-01-11T03:05:39.239Z,99057.84
2023-01-11T03:08:26.595Z,99066.94
2023-01-11T03:11:02.554Z,99074.09
2023-01-11T03:13:41.306Z,99070.25
2023-01-11T03:16:22.263Z,99062.13
2023-01-11T03:18:54.353Z,99071.44
2023-01-11T03:21:32.859Z,99064.16
2023-01-11T03:24:08.415Z,99065.88
2023-01-11T03:26:45.682Z,99070.88
2023-01-11T03:29:19.203Z,99069.09
2023-01-11T03:31:52.446Z,99065.16
2023-01-11T03:34:26.278Z,99064.59
2023-01-11T03:36:58.713Z,99066.22
2023-01-11T03:39:30.679Z,99070.41
2023-01-11T03:42:01.489Z,99076.44
2023-01-11T03:44:34.203Z,99065.41
2023-01-11T03:47:06.771Z,99063.00
2023-01-11T03:49:38.163Z,99061.94
2023-01-11T03:52:09.741Z,99058.34
2023-01-11T03:54:38.628Z,99052.00
2023-01-11T03:57:11.529Z,99057.56
2023-01-11T03:59:41.139Z,99052.16
2023-01-11T04:02:17.277Z,99049.38
2023-01-11T04:04:46.046Z,99052.00
2023-01-11T04:07:15.507Z,99036.59
2023-01-11T04:09:44.088Z,99035.56
2023-01-11T04:12:12.853Z,99038.91
2023-01-11T04:14:41.463Z,99031.19
2023-01-11T04:17:10.059Z,99033.97
2023-01-11T04:19:39.981Z,99030.94
2023-01-11T04:22:08.596Z,99025.75
2023-01-11T04:24:37.167Z,99031.91
2023-01-11T04:27:05.728Z,99029.75
2023-01-11T04:29:34.414Z,99019.19
2023-01-11T04:32:03.617Z,99018.56
2023-01-11T04:34:32.224Z,99020.91
2023-01-11T04:37:02.216Z,99013.28
2023-01-11T04:39:30.833Z,99006.03
2023-01-11T04:42:16.753Z,98994.22
2023-01-11T04:44:45.555Z,99007.41
2023-01-11T04:47:14.212Z,99017.16
2023-01-11T04:49:43.039Z,99020.75
2023-01-11T04:52:14.274Z,99012.34
2023-01-11T04:54:43.155Z,99020.75
2023-01-11T04:57:13.624Z,99009.75
2023-01-11T04:59:42.753Z,99003.91
2023-01-11T05:02:11.366Z,98999.97
2023-01-11T05:04:39.933Z,98997.75
2023-01-11T05:07:08.940Z,98983.13
2023-01-11T05:09:40.814Z,98981.00
2023-01-11T05:12:09.453Z,98974.75
2023-01-11T05:14:38.103Z,98977.41
2023-01-11T05:17:06.667Z,98975.25
2023-01-11T05:19:35.253Z,98973.44
2023-01-11T05:22:03.922Z,98974.88
2023-01-11T05:24:32.497Z,98973.63
2023-01-11T05:27:03.547Z,98980.81
2023-01-11T05:29:32.136Z,98975.44
2023-01-11T05:32:00.786Z,98967.84
2023-01-11T05:34:29.469Z,98966.31
2023-01-11T05:36:58.097Z,98962.34
2023-01-11T05:39:26.930Z,98968.75
2023-01-11T05:41:55.520Z,98971.03
2023-01-11T05:44:43.087Z,98968.91
2023-01-11T05:47:11.687Z,98978.41
2023-01-11T05:49:40.827Z,98973.28
2023-01-11T05:52:09.389Z,98982.88
2023-01-11T05:54:38.220Z,98983.03
2023-01-11T05:57:10.486Z,98975.69
2023-01-11T05:59:40.428Z,98976.41
2023-01-11T06:02:09.089Z,98973.97
2023-01-11T06:04:37.745Z,98966.16
2023-01-11T06:07:06.842Z,98981.16
2023-01-11T06:09:35.508Z,98976.50
2023-01-11T06:12:04.327Z,98978.75
2023-01-11T06:14:32.967Z,98964.00
2023-01-11T06:17:03.831Z,98959.03
2023-01-11T06:19:32.439Z,98951.25
2023-01-11T06:22:01.043Z,98947.06
2023-01-11T06:24:29.679Z,98940.84
2023-01-11T06:26:58.366Z,98919.41
2023-01-11T06:29:26.934Z,98934.44
2023-01-11T06:31:55.567Z,98928.81
2023-01-11T06:34:25.588Z,98923.19
2023-01-11T06:36:54.189Z,98929.53
2023-01-11T06:39:22.841Z,98928.38
2023-01-11T06:41:51.564Z,98929.34
2023-01-11T06:44:20.507Z,98943.97
2023-01-11T06:46:49.168Z,98950.13
2023-01-11T06:49:17.788Z,98942.34
2023-01-11T06:51:47.768Z,98932.84
2023-01-11T06:54:21.827Z,98933.75
2023-01-11T06:56:50.385Z,98924.00
2023-01-11T06:59:19.013Z,98926.84
2023-01-11T07:01:48.034Z,98918.28
2023-01-11T07:04:18.606Z,98922.47
2023-01-11T07:06:48.596Z,98911.09
2023-01-11T07:09:17.216Z,98913.28
2023-01-11T07:11:45.818Z,98912.25
2023-01-11T07:14:19.804Z,98914.63
2023-01-11T07:16:48.415Z,98923.75
2023-01-11T07:19:18.096Z,98924.72
2023-01-11T07:21:48.173Z,98918.56
2023-01-11T07:24:16.796Z,98918.56
2023-01-11T07:26:45.459Z,98913.75
2023-01-11T07:29:14.106Z,98913.28
2023-01-11T07:31:42.786Z,98911.84
2023-01-11T07:34:11.421Z,98902.53
2023-01-11T07:36:40.869Z,98902.81
2023-01-11T07:39:10.836Z,98913.44
2023-01-11T07:41:56.915Z,98907.91
2023-01-11T07:44:25.539Z,98909.63
2023-01-11T07:46:54.441Z,98912.03
2023-01-11T07:49:23.128Z,98903.97
2023-01-11T07:51:52.766Z,98903.22
2023-01-11T07:54:22.834Z,98903.88
2023-01-11T07:56:51.478Z,98913.88
2023-01-11T07:59:20.138Z,98916.75
2023-01-11T08:01:48.810Z,98916.38
2023-01-11T08:04:17.494Z,98916.00
2023-01-11T08:06:46.116Z,98912.06
2023-01-11T08:09:14.800Z,98912.66
2023-01-11T08:12:02.177Z,98921.69
2023-01-11T08:14:43.057Z,98913.19
2023-01-11T08:17:13.824Z,98924.97
2023-01-11T08:19:42.917Z,98922.84
2023-01-11T08:22:12.188Z,98929.28
2023-01-11T08:24:40.843Z,98928.56
2023-01-11T08:27:11.003Z,98929.34
2023-01-11T08:29:43.888Z,98926.22
2023-01-11T08:32:12.709Z,98920.88
2023-01-11T08:34:41.594Z,98922.50
2023-01-11T08:37:10.266Z,98923.38
2023-01-11T08:39:40.330Z,98919.59
2023-01-11T08:42:10.294Z,98930.25
2023-01-11T08:44:39.019Z,98923.84
2023-01-11T08:47:07.844Z,98926.28
2023-01-11T08:49:36.430Z,98918.03
2023-01-11T08:52:05.459Z,98928.13
2023-01-11T08:54:34.077Z,98938.59
2023-01-11T08:57:02.718Z,98933.63
2023-01-11T08:59:32.777Z,98924.84
2023-01-11T09:02:02.487Z,98918.59
2023-01-11T09:04:31.248Z,98922.84
2023-01-11T09:06:59.927Z,98919.50
2023-01-11T09:09:28.539Z,98913.34
2023-01-11T09:12:00.311Z,98921.59
2023-01-11T09:14:29.877Z,98916.19
2023-01-11T09:17:00.159Z,98919.59
2023-01-11T09:19:28.792Z,98923.22
2023-01-11T09:22:00.357Z,98921.66
2023-01-11T09:24:29.173Z,98909.28
2023-01-11T09:26:59.239Z,98914.69
2023-01-11T09:29:28.015Z,98915.13
2023-01-11T09:31:56.761Z,98917.16
2023-01-11T09:34:27.455Z,98915.16
2023-01-11T09:36:59.347Z,98917.59
2023-01-11T09:39:28.899Z,98928.00
2023-01-11T09:42:12.739Z,98918.22
2023-01-11T09:44:49.705Z,98921.44
2023-01-11T09:47:23.398Z,98912.63
2023-01-11T09:49:57.265Z,98906.06
2023-01-11T09:52:29.909Z,98909.66
2023-01-11T09:54:59.833Z,98907.28
2023-01-11T09:57:38.954Z,98907.47
2023-01-11T10:00:16.374Z,98903.31
2023-01-11T10:02:56.876Z,98898.88
2023-01-11T10:05:37.492Z,98901.13
2023-01-11T10:18:34.073Z,98892.75
2023-01-11T10:18:41.719Z,98896.34
2023-01-11T10:20:04.948Z,98892.16
2023-01-11T10:22:40.950Z,98882.78
2023-01-11T10:25:18.690Z,98889.75
2023-01-11T10:27:54.309Z,98888.56
2023-01-11T10:30:41.959Z,98886.97
2023-01-11T10:33:29.864Z,98885.19
2023-01-11T10:36:14.680Z,98885.59
2023-01-11T10:39:07.932Z,98879.78
2023-01-11T10:41:46.650Z,98884.44
2023-01-11T10:44:19.349Z,98876.41
2023-01-11T10:46:50.984Z,98873.00
2023-01-11T10:49:32.206Z,98875.84
2023-01-11T10:52:07.625Z,98876.03
2023-01-11T10:54:39.044Z,98875.63
2023-01-11T10:57:18.112Z,98875.84
2023-01-11T10:59:59.792Z,98870.00
2023-01-11T11:02:41.236Z,98870.81
2023-01-11T11:05:20.556Z,98860.22
2023-01-11T11:07:55.499Z,98869.84
2023-01-11T11:10:32.877Z,98867.59
2023-01-11T11:13:10.311Z,98865.00
2023-01-11T11:15:42.361Z,98867.03
2023-01-11T11:18:11.189Z,98867.63
2023-01-11T11:20:40.696Z,98862.41
2023-01-11T11:23:12.114Z,98862.59
2023-01-11T11:25:43.517Z,98857.19
2023-01-11T11:28:27.337Z,98857.59
2023-01-11T11:30:57.668Z,98854.19
2023-01-11T11:33:29.639Z,98854.59
2023-01-11T11:35:59.784Z,98844.56
2023-01-11T11:38:30.178Z,98835.75
2023-01-11T11:41:06.599Z,98833.31
2023-01-11T11:43:36.402Z,98834.72
2023-01-11T11:46:06.239Z,98826.84
2023-01-11T11:48:35.795Z,98830.44
2023-01-11T11:51:06.597Z,98833.59
2023-01-11T11:53:38.403Z,98831.19
2023-01-11T11:56:18.659Z,98828.94
2023-01-11T11:58:47.765Z,98824.69
2023-01-11T12:01:28.960Z,98825.03
2023-01-11T12:04:00.538Z,98825.81
2023-01-11T12:06:30.187Z,98825.78
2023-01-11T12:09:01.512Z,98828.38
2023-01-11T12:11:34.897Z,98822.28
2023-01-11T12:14:07.609Z,98816.84
2023-01-11T12:16:39.442Z,98818.81
2023-01-11T12:19:26.155Z,98813.19
2023-01-11T12:21:54.851Z,98811.78
2023-01-11T12:24:27.150Z,98813.53
2023-01-11T12:27:06.443Z,98811.91
2023-01-11T12:29:50.989Z,98809.16
2023-01-11T12:32:31.689Z,98818.16
2023-01-11T12:35:10.010Z,98812.72
2023-01-11T12:37:52.056Z,98814.09
2023-01-11T12:40:26.583Z,98819.31
2023-01-11T12:43:10.206Z,98813.69
2023-01-11T12:45:43.939Z,98810.88
2023-01-11T12:48:31.156Z,98809.06
2023-01-11T12:51:09.550Z,98814.28
2023-01-11T12:53:53.851Z,98820.50
2023-01-11T12:56:50.032Z,98820.91
2023-01-11T12:59:30.476Z,98820.69
2023-01-11T13:02:06.904Z,98822.28
2023-01-11T13:04:50.516Z,98831.56
2023-01-11T13:07:36.977Z,98836.19
2023-01-11T13:10:25.402Z,98836.03
2023-01-11T13:12:58.425Z,98844.56
2023-01-11T13:15:34.809Z,98831.88
2023-01-11T13:18:13.086Z,98839.91
2023-01-11T13:21:00.141Z,98843.91
2023-01-11T13:23:34.400Z,98838.91
2023-01-11T13:26:13.103Z,98843.31
2023-01-11T13:28:44.454Z,98839.91
2023-01-11T13:31:16.079Z,98850.16
2023-01-11T13:33:48.072Z,98842.53
2023-01-11T13:36:23.624Z,98840.91
2023-01-11T13:38:58.302Z,98845.13
2023-01-11T13:41:31.245Z,98839.34
2023-01-11T13:44:03.347Z,98848.81
2023-01-11T13:46:43.420Z,98852.22
2023-01-11T13:49:19.290Z,98851.22
2023-01-11T13:51:53.081Z,98849.03
2023-01-11T13:54:26.715Z,98863.84
2023-01-11T13:56:59.714Z,98858.41
2023-01-11T13:59:31.666Z,98867.03
2023-01-11T14:02:04.344Z,98863.41
2023-01-11T14:04:39.835Z,98870.47
2023-01-11T14:07:15.212Z,98877.47
2023-01-11T14:10:04.732Z,98882.13
2023-01-11T14:12:48.311Z,98880.31
2023-01-11T14:15:24.005Z,98888.97
2023-01-11T14:18:13.142Z,98894.78
2023-01-11T14:20:47.079Z,98898.00
2023-01-11T14:23:19.008Z,98910.44
2023-01-11T14:26:11.484Z,98916.31
2023-01-11T14:28:59.228Z,98920.31
2023-01-11T14:31:45.056Z,98922.72
2023-01-11T14:34:53.408Z,98930.34
2023-01-11T14:37:43.793Z,98933.53
2023-01-11T14:40:27.857Z,98945.81
2023-01-11T14:43:50.076Z,98946.59
2023-01-11T14:46:52.284Z,98944.19
2023-01-11T14:49:34.397Z,98949.41
2023-01-11T14:52:05.477Z,98960.84
2023-01-11T14:54:35.531Z,98965.50
2023-01-11T14:57:04.397Z,98961.50
2023-01-11T14:59:35.801Z,98971.34
2023-01-11T15:02:29.162Z,98975.78
2023-01-11T15:05:13.434Z,98979.59
2023-01-11T15:07:43.178Z,98987.44
2023-01-11T15:10:41.847Z,98986.63
2023-01-11T15:13:14.656Z,98979.22
2023-01-11T15:16:01.144Z,98989.66
2023-01-11T15:18:30.490Z,98997.50
2023-01-11T15:21:04.655Z,99000.53
2023-01-11T15:23:36.526Z,99000.91
2023-01-11T15:26:07.875Z,99002.53
2023-01-11T15:28:45.053Z,99012.63
2023-01-11T15:31:33.914Z,99014.63
2023-01-11T15:34:06.479Z,99015.66
2023-01-11T15:37:17.685Z,99027.09
2023-01-11T15:39:49.447Z,99028.28
2023-01-11T15:42:38.606Z,99031.09
2023-01-11T15:45:30.565Z,99038.34
2023-01-11T15:48:17.658Z,99032.53
2023-01-11T15:51:07.561Z,99045.56
2023-01-11T15:53:57.020Z,99051.81
2023-01-11T15:56:55.320Z,99061.06
2023-01-11T16:00:03.549Z,99067.50
2023-01-11T16:02:56.536Z,99078.34
2023-01-11T16:05:28.101Z,99074.91
2023-01-11T16:08:03.106Z,99077.13
2023-01-11T16:10:52.458Z,99089.78
2023-01-11T16:13:31.464Z,99088.19
2023-01-11T16:16:07.891Z,99098.59
2023-01-11T16:18:39.984Z,99101.63
2023-01-11T16:21:13.270Z,99115.50
2023-01-11T16:23:42.276Z,99120.31
2023-01-11T16:26:16.636Z,99129.75
2023-01-11T16:28:50.103Z,99134.97
2023-01-11T16:31:18.833Z,99139.38
2023-01-11T16:33:49.701Z,99151.25
2023-01-11T16:36:21.894Z,99144.41
2023-01-11T16:39:02.462Z,99155.44
2023-01-11T16:41:38.042Z,99156.81
2023-01-11T16:44:08.949Z,99170.72
2023-01-11T16:47:15.825Z,99171.69
2023-01-11T16:49:48.830Z,99170.91
2023-01-11T16:52:39.280Z,99167.06
2023-01-11T16:55:32.445Z,99165.66
2023-01-11T16:58:04.473Z,99173.06
2023-01-11T17:00:37.976Z,99183.72
2023-01-11T17:03:21.622Z,99183.28
2023-01-11T17:06:14.603Z,99187.72
2023-01-11T17:08:44.709Z,99194.13
2023-01-11T17:11:25.375Z,99194.50
2023-01-11T17:14:19.797Z,99207.75
2023-01-11T17:16:50.305Z,99208.16
2023-01-11T17:19:21.510Z,99221.34
2023-01-11T17:21:52.033Z,99224.56
2023-01-11T17:24:24.713Z,99219.34
2023-01-11T17:26:56.483Z,99225.75
2023-01-11T17:29:30.255Z,99234.59
2023-01-11T17:32:00.314Z,99231.38
2023-01-11T17:34:32.206Z,99223.72
2023-01-11T17:37:01.783Z,99239.78
2023-01-11T17:39:33.138Z,99235.56
2023-01-11T17:42:20.482Z,99235.31
2023-01-11T17:45:08.844Z,99255.19
2023-01-11T17:47:39.503Z,99261.03
2023-01-11T17:50:20.074Z,99261.22
2023-01-11T17:52:54.890Z,99264.19
2023-01-11T17:55:25.770Z,99267.78
2023-01-11T17:58:14.514Z,99280.28
2023-01-11T18:00:45.414Z,99279.84
2023-01-11T18:03:15.833Z,99280.19
2023-01-11T18:05:45.124Z,99281.03
2023-01-11T18:08:20.233Z,99281.22
2023-01-11T18:10:55.183Z,99279.78
2023-01-11T18:13:27.381Z,99288.03
2023-01-11T18:15:57.370Z,99282.81
2023-01-11T18:18:43.541Z,99290.63
2023-01-11T18:21:41.067Z,99300.66
2023-01-11T18:24:43.044Z,99318.28
2023-01-11T18:27:21.090Z,99323.28
2023-01-11T18:29:51.055Z,99313.78
2023-01-11T18:32:21.756Z,99300.13
2023-01-11T18:34:53.827Z,99294.06
2023-01-11T18:37:22.945Z,99291.59
2023-01-11T18:39:52.854Z,99298.38
2023-01-11T18:42:25.819Z,99302.53
2023-01-11T18:44:54.500Z,99306.88
2023-01-11T18:47:25.892Z,99302.44
2023-01-11T18:49:54.920Z,99298.19
2023-01-11T18:52:27.343Z,99306.97
2023-01-11T18:54:56.696Z,99310.94
2023-01-11T18:57:26.183Z,99316.53
2023-01-11T18:59:55.473Z,99321.53
2023-01-11T19:02:27.540Z,99320.84
2023-01-11T19:04:57.364Z,99322.41
2023-01-11T19:07:27.658Z,99321.38
2023-01-11T19:09:56.466Z,99330.44
2023-01-11T19:12:25.075Z,99329.75
2023-01-11T19:14:53.747Z,99326.47
2023-01-11T19:17:22.509Z,99346.78
2023-01-11T19:19:52.476Z,99338.91
2023-01-11T19:22:23.442Z,99342.94
2023-01-11T19:24:55.152Z,99347.25
2023-01-11T19:27:24.375Z,99356.41
2023-01-11T19:29:53.953Z,99356.97
2023-01-11T19:32:25.056Z,99362.97
2023-01-11T19:34:57.933Z,99352.66
2023-01-11T19:37:29.968Z,99362.63
2023-01-11T19:39:58.585Z,99355.00
2023-01-11T19:42:27.222Z,99351.75
2023-01-11T19:44:55.907Z,99334.97
2023-01-11T19:47:24.608Z,99357.31
2023-01-11T19:49:56.279Z,99371.69
2023-01-11T19:52:26.711Z,99362.69
2023-01-11T19:54:56.732Z,99379.81
2023-01-11T19:57:25.466Z,99363.41
2023-01-11T19:59:54.126Z,99365.59
2023-01-11T20:02:22.896Z,99360.91
2023-01-11T20:04:51.602Z,99372.19
2023-01-11T20:07:20.339Z,99372.56
2023-01-11T20:09:50.361Z,99366.75
2023-01-11T20:12:19.015Z,99372.56
2023-01-11T20:14:47.669Z,99379.09
2023-01-11T20:17:20.904Z,99383.31
2023-01-11T20:19:54.369Z,99382.94
2023-01-11T20:22:23.314Z,99379.88
2023-01-11T20:24:53.348Z,99384.66
2023-01-11T20:27:21.990Z,99390.72
2023-01-11T20:29:50.705Z,99396.25
2023-01-11T20:32:39.632Z,99404.75
2023-01-11T20:35:09.450Z,99398.25
2023-01-11T20:37:38.193Z,99399.03
2023-01-11T20:40:11.805Z,99406.09
2023-01-11T20:42:41.428Z,99406.94
2023-01-11T20:45:11.122Z,99406.84
2023-01-11T20:47:39.733Z,99404.44
2023-01-11T20:50:09.618Z,99407.53
2023-01-11T20:52:38.198Z,99412.06
2023-01-11T20:55:09.321Z,99415.63
2023-01-11T20:57:37.971Z,99407.22
2023-01-11T21:02:38.453Z,99403.22
2023-01-11T21:05:07.974Z,99414.44
2023-01-11T21:07:36.600Z,99416.22
2023-01-11T21:10:05.964Z,99413.97
2023-01-11T21:12:35.990Z,99422.44
2023-01-11T21:15:05.227Z,99415.31
2023-01-11T21:17:33.987Z,99416.81
2023-01-11T21:20:02.680Z,99429.47
2023-01-11T21:22:31.392Z,99428.81
2023-01-11T21:25:00.037Z,99420.25
2023-01-11T21:27:28.685Z,99415.88
2023-01-11T21:29:58.609Z,99430.00
2023-01-11T21:32:27.280Z,99441.38
2023-01-11T21:34:55.946Z,99432.31
2023-01-11T21:37:24.682Z,99433.09
2023-01-11T21:39:53.406Z,99431.97
2023-01-11T21:42:22.078Z,99436.84
2023-01-11T21:44:50.656Z,99431.81
2023-01-11T21:47:22.209Z,99441.25
2023-01-11T21:49:50.789Z,99443.91
2023-01-11T21:52:19.454Z,99441.31
2023-01-11T21:54:49.611Z,99439.69
2023-01-11T21:57:18.226Z,99428.34
2023-01-11T21:59:47.016Z,99439.03
2023-01-11T22:02:15.715Z,99437.09
2023-01-11T22:04:45.810Z,99432.44
2023-01-11T22:07:14.418Z,99419.47
2023-01-11T22:09:59.902Z,99418.97
2023-01-11T22:12:32.091Z,99406.34
2023-01-11T22:15:00.732Z,99414.97
2023-01-11T22:17:29.355Z,99418.53
2023-01-11T22:19:59.300Z,99416.28
2023-01-11T22:22:28.186Z,99410.91
2023-01-11T22:24:56.836Z,99418.19
2023-01-11T22:27:25.474Z,99419.19
2023-01-11T22:29:54.839Z,99419.34
2023-01-11T22:32:23.513Z,99431.34
2023-01-11T22:34:52.234Z,99444.63
2023-01-11T22:37:22.333Z,99437.19
2023-01-11T22:39:51.011Z,99444.00
2023-01-11T22:42:19.657Z,99449.34
2023-01-11T22:44:48.301Z,99451.13
2023-01-11T22:47:16.920Z,99450.00
2023-01-11T22:49:45.551Z,99451.78
2023-01-11T22:52:14.130Z,99457.94
2023-01-11T22:54:44.058Z,99447.56
2023-01-11T22:57:12.646Z,99458.25
2023-01-11T22:59:41.202Z,99448.69
2023-01-11T23:02:10.015Z,99447.88
2023-01-11T23:04:38.594Z,99454.38
2023-01-11T23:07:07.245Z,99459.22
2023-01-11T23:09:35.941Z,99458.41
2023-01-11T23:12:24.594Z,99462.63
2023-01-11T23:14:53.207Z,99459.56
2023-01-11T23:17:21.849Z,99450.81
2023-01-11T23:19:50.513Z,99453.88
2023-01-11T23:22:19.145Z,99445.66
2023-01-11T23:24:47.845Z,99435.91
2023-01-11T23:27:17.926Z,99438.19
2023-01-11T23:29:46.530Z,99445.31
2023-01-11T23:32:15.162Z,99446.44
2023-01-11T23:34:43.794Z,99447.56
2023-01-11T23:37:12.373Z,99448.88
2023-01-11T23:39:41.013Z,99449.19
2023-01-11T23:42:27.850Z,99443.69
2023-01-11T23:44:58.546Z,99444.69
2023-01-11T23:47:29.463Z,99439.81
2023-01-11T23:50:00.345Z,99436.56
2023-01-11T23:52:31.374Z,99439.81
2023-01-11T23:55:00.537Z,99433.81
2023-01-11T23:57:29.218Z,99432.34
2023-01-11T23:59:59.156Z,99442.09
